Nearby METAR Reports

Aktualna pogoda na lotniskach (dane METAR)

 

EPGD - Gdansk/Rebiechow, Poland
Distance from station: ENE 27mi, 44km
Updated: Thu, 18-Jul-2019 8:30pm PDT
Patches of fog, Partly cloudy
Patches of fog, Partly cloudy
 Wind from W
Wind: W 2 mph , 4 km/h
Temperature: 50°F , 10°C
Dew Point: 50°F , 10°C
Humidity: 100%
Barometer: 29.94 inHg , 1014 hPa
Summary: Patches of Fog
Clouds: Partly Cloudy
Visibility: 5 miles , 8 km
2019/07/19 03:30 EPGD 190330Z 26002KT 8000 0700W BCFG NSC 10/10 Q1014
EPSC - Szczecin/Golenio, Poland
Distance from station: WSW 128mi, 205km
Updated: Thu, 18-Jul-2019 8:30pm PDT
Clear
Clear
 Wind from E
Wind: E 8 mph , 13 km/h
Temperature: 61°F , 16°C
Dew Point: 50°F , 10°C
Humidity: 68%
Barometer: 29.88 inHg , 1012 hPa
Summary: Clear
Visibility: greater than 7 miles , 10 km
2019/07/19 03:30 EPSC 190330Z 10007KT CAVOK 16/10 Q1012
 
EPPO - Poznan/Lawica, Poland
Distance from station: SSW 131mi, 210km
Updated: Thu, 18-Jul-2019 8:30pm PDT
Clear
Clear
 Wind from E
Wind: E 3 mph , 6 km/h
Temperature: 55°F , 13°C
Dew Point: 48°F , 9°C
Humidity: 77%
Barometer: 29.91 inHg , 1013 hPa
Summary: Clear
Visibility: greater than 7 miles , 10 km
2019/07/19 03:30 EPPO 190330Z 10003KT CAVOK 13/09 Q1013
EPLL - Lodz/Lublinek, Poland
Distance from station: SSE 184mi, 296km
Updated: Thu, 18-Jul-2019 8:30pm PDT
Clear
Clear
 Wind from E
Wind: E 1 mph , 2 km/h
Temperature: 54°F , 12°C
Dew Point: 48°F , 9°C
Humidity: 82%
Barometer: 29.94 inHg , 1014 hPa
Summary: Clear
Visibility: greater than 7 miles , 10 km
2019/07/19 03:30 EPLL 190330Z 08001KT CAVOK 12/09 Q1014
 
EPWA - Warsaw/Okecie, Poland
Distance from station: SE 191mi, 307km
Updated: Thu, 18-Jul-2019 8:30pm PDT
Clear
Clear
 Wind from SSE
Wind: SSE 2 mph , 4 km/h
Temperature: 55°F , 13°C
Dew Point: 52°F , 11°C
Humidity: 88%
Barometer: 29.94 inHg , 1014 hPa
Summary: Clear
Visibility: greater than 7 miles , 10 km
2019/07/19 03:30 EPWA 190330Z 15002KT CAVOK 13/11 Q1014 NOSIG
EPWR - Wroclaw/Strachow, Poland
Distance from station: S 219mi, 352km
Updated: Thu, 18-Jul-2019 8:30pm PDT
Clear
Clear
 Wind from ESE
Wind: ESE 3 mph , 6 km/h
Temperature: 55°F , 13°C
Dew Point: 50°F , 10°C
Humidity: 82%
Barometer: 29.91 inHg , 1013 hPa
Summary: Clear
Visibility: greater than 7 miles , 10 km
2019/07/19 03:30 EPWR 190330Z 12003KT CAVOK 13/10 Q1013

Metar display script from Saratoga-Weather.org